Lycksele

Airport
ICAO code: 
ESNL
Summary
ICAO Region: 
EUR
Territory: 
Location: 
Lycksele, Lapland,
Coordinates: 
Aerial View: 
64° 32' 51" N, 18° 43' 4.001" E
Metar
Observation
ESNL 200120Z AUTO 31015KT 9999 NCD M05/M10 Q0988
Station
Lycksele
Date/Time
2022-01-20 01:20:00
Wind direction
310°
Wind speed
15 kts
Lowest cloud amount
no clouds detected
Temperature
-5°C
Dew point
-10°C
Humidity
67%
QNH
988 hPa
Weather condition
n/a

Description

Lycksele Airport is an airport in Lycksele, Lapland, Sweden.

Climatology

Lycksele has Subarctic climate (Köppen climate classification Dfc) with short cool summers and long cold and snowy winters. Despite its extremely northern latitude, the climate is relatively mild compared to other places at similar latitude because of the Gulf Stream.

Runways

Designator Length Width Surface Rops
14/32 2001 30 ASP No/No
Airport map: 
Aerial View: 

SKYbrary Partners:

Safety knowledge contributed by: